sensor_id;sensor_type;location;lat;lon;timestamp;pressure;altitude;pressure_sealevel;temperature;humidity
76753;BME280;65687;51.308;16.916;2023-04-03T00:02:35;100577.94;;;0.33;70.08
76753;BME280;65687;51.308;16.916;2023-04-03T00:07:36;100578.86;;;0.23;70.38
76753;BME280;65687;51.308;16.916;2023-04-03T00:12:38;100583.39;;;0.21;70.32
76753;BME280;65687;51.308;16.916;2023-04-03T00:17:39;100583.82;;;0.19;70.49
76753;BME280;65687;51.308;16.916;2023-04-03T00:22:41;100586.34;;;0.14;70.76
76753;BME280;65687;51.308;16.916;2023-04-03T00:27:42;100584.51;;;0.08;71.08
76753;BME280;65687;51.308;16.916;2023-04-03T00:32:44;100581.30;;;0.01;71.26
76753;BME280;65687;51.308;16.916;2023-04-03T00:37:46;100581.04;;;-0.02;71.51
76753;BME280;65687;51.308;16.916;2023-04-03T00:42:50;100582.41;;;-0.03;71.71
76753;BME280;65687;51.308;16.916;2023-04-03T00:47:52;100586.58;;;-0.01;72.06
76753;BME280;65687;51.308;16.916;2023-04-03T00:52:55;100586.76;;;-0.03;72.15
76753;BME280;65687;51.308;16.916;2023-04-03T00:57:57;100591.94;;;-0.05;72.74
76753;BME280;65687;51.308;16.916;2023-04-03T01:02:59;100599.30;;;-0.09;72.61
76753;BME280;65687;51.308;16.916;2023-04-03T01:08:03;100603.06;;;-0.13;73.07
76753;BME280;65687;51.308;16.916;2023-04-03T01:13:18;100605.16;;;-0.14;73.38
76753;BME280;65687;51.308;16.916;2023-04-03T01:18:22;100609.00;;;-0.18;73.34
76753;BME280;65687;51.308;16.916;2023-04-03T01:23:38;100617.42;;;-0.19;73.63
76753;BME280;65687;51.308;16.916;2023-04-03T01:28:43;100627.78;;;-0.18;73.72
76753;BME280;65687;51.308;16.916;2023-04-03T01:33:45;100626.95;;;-0.20;73.92
76753;BME280;65687;51.308;16.916;2023-04-03T01:38:47;100634.56;;;-0.22;74.19
76753;BME280;65687;51.308;16.916;2023-04-03T01:43:49;100638.77;;;-0.28;74.48
76753;BME280;65687;51.308;16.916;2023-04-03T01:48:51;100644.06;;;-0.31;74.70
76753;BME280;65687;51.308;16.916;2023-04-03T01:53:52;100642.30;;;-0.36;75.07
76753;BME280;65687;51.308;16.916;2023-04-03T01:58:54;100646.45;;;-0.37;75.52
76753;BME280;65687;51.308;16.916;2023-04-03T02:03:55;100647.64;;;-0.36;75.43
76753;BME280;65687;51.308;16.916;2023-04-03T02:08:57;100646.42;;;-0.38;75.43
76753;BME280;65687;51.308;16.916;2023-04-03T02:13:59;100649.45;;;-0.41;75.49
76753;BME280;65687;51.308;16.916;2023-04-03T02:19:01;100647.62;;;-0.45;75.76
76753;BME280;65687;51.308;16.916;2023-04-03T02:24:03;100654.77;;;-0.53;75.78
76753;BME280;65687;51.308;16.916;2023-04-03T02:29:05;100657.30;;;-0.51;75.97
76753;BME280;65687;51.308;16.916;2023-04-03T02:34:07;100658.23;;;-0.49;76.15
76753;BME280;65687;51.308;16.916;2023-04-03T02:39:09;100657.81;;;-0.54;76.15
76753;BME280;65687;51.308;16.916;2023-04-03T02:44:11;100661.21;;;-0.58;76.40
76753;BME280;65687;51.308;16.916;2023-04-03T02:49:12;100663.41;;;-0.65;76.60
76753;BME280;65687;51.308;16.916;2023-04-03T02:54:14;100665.70;;;-0.64;76.72
76753;BME280;65687;51.308;16.916;2023-04-03T02:59:16;100667.66;;;-0.69;77.01
76753;BME280;65687;51.308;16.916;2023-04-03T03:04:17;100670.00;;;-0.72;76.96
76753;BME280;65687;51.308;16.916;2023-04-03T03:09:19;100677.01;;;-0.76;77.10
76753;BME280;65687;51.308;16.916;2023-04-03T03:14:20;100675.87;;;-0.84;77.16
76753;BME280;65687;51.308;16.916;2023-04-03T03:19:22;100679.85;;;-0.89;77.55
76753;BME280;65687;51.308;16.916;2023-04-03T03:24:24;100680.50;;;-0.85;77.21
76753;BME280;65687;51.308;16.916;2023-04-03T03:29:26;100678.45;;;-0.86;77.51
76753;BME280;65687;51.308;16.916;2023-04-03T03:34:27;100677.13;;;-0.87;77.69
76753;BME280;65687;51.308;16.916;2023-04-03T03:39:29;100675.55;;;-0.89;77.79
76753;BME280;65687;51.308;16.916;2023-04-03T03:44:31;100672.23;;;-0.97;77.58
76753;BME280;65687;51.308;16.916;2023-04-03T03:49:33;100678.68;;;-1.04;78.07
76753;BME280;65687;51.308;16.916;2023-04-03T03:54:34;100681.09;;;-1.04;78.26
76753;BME280;65687;51.308;16.916;2023-04-03T03:59:36;100682.80;;;-1.04;77.95
76753;BME280;65687;51.308;16.916;2023-04-03T04:04:38;100682.64;;;-1.14;78.34
76753;BME280;65687;51.308;16.916;2023-04-03T04:09:40;100690.38;;;-1.19;78.72
76753;BME280;65687;51.308;16.916;2023-04-03T04:14:41;100691.82;;;-1.24;78.77
76753;BME280;65687;51.308;16.916;2023-04-03T04:19:43;100692.29;;;-1.24;79.01
76753;BME280;65687;51.308;16.916;2023-04-03T04:24:44;100700.84;;;-1.23;79.00
76753;BME280;65687;51.308;16.916;2023-04-03T04:29:46;100702.48;;;-1.23;79.01
76753;BME280;65687;51.308;16.916;2023-04-03T04:34:47;100706.80;;;-1.25;78.77
76753;BME280;65687;51.308;16.916;2023-04-03T04:39:49;100706.98;;;-1.28;79.15
76753;BME280;65687;51.308;16.916;2023-04-03T04:44:51;100713.27;;;-1.34;79.19
76753;BME280;65687;51.308;16.916;2023-04-03T04:49:52;100719.71;;;-1.38;79.42
76753;BME280;65687;51.308;16.916;2023-04-03T04:54:54;100723.27;;;-1.38;79.42
76753;BME280;65687;51.308;16.916;2023-04-03T04:59:56;100726.70;;;-1.39;79.44
76753;BME280;65687;51.308;16.916;2023-04-03T05:04:57;100735.77;;;-1.39;79.44
76753;BME280;65687;51.308;16.916;2023-04-03T05:09:59;100743.25;;;-1.39;79.83
76753;BME280;65687;51.308;16.916;2023-04-03T05:15:00;100739.95;;;-1.35;79.67
76753;BME280;65687;51.308;16.916;2023-04-03T05:20:03;100742.55;;;-1.38;79.72
76753;BME280;65687;51.308;16.916;2023-04-03T05:25:06;100745.16;;;-1.40;79.52
76753;BME280;65687;51.308;16.916;2023-04-03T05:30:09;100752.09;;;-1.36;79.98
76753;BME280;65687;51.308;16.916;2023-04-03T05:35:11;100748.66;;;-1.30;79.68
76753;BME280;65687;51.308;16.916;2023-04-03T05:40:12;100750.22;;;-1.22;79.70
76753;BME280;65687;51.308;16.916;2023-04-03T05:45:14;100751.55;;;-1.16;79.81
76753;BME280;65687;51.308;16.916;2023-04-03T05:50:16;100755.04;;;-1.15;79.36
76753;BME280;65687;51.308;16.916;2023-04-03T05:55:17;100748.10;;;-1.16;79.46
76753;BME280;65687;51.308;16.916;2023-04-03T06:00:19;100754.02;;;-1.11;79.33
76753;BME280;65687;51.308;16.916;2023-04-03T06:05:22;100760.60;;;-1.09;79.59
76753;BME280;65687;51.308;16.916;2023-04-03T06:10:25;100762.52;;;-1.04;79.38
76753;BME280;65687;51.308;16.916;2023-04-03T06:15:26;100766.48;;;-0.99;79.65
76753;BME280;65687;51.308;16.916;2023-04-03T06:20:28;100769.81;;;-0.90;78.98
76753;BME280;65687;51.308;16.916;2023-04-03T06:25:30;100772.50;;;-0.81;78.93
76753;BME280;65687;51.308;16.916;2023-04-03T06:30:32;100776.00;;;-0.74;78.68
76753;BME280;65687;51.308;16.916;2023-04-03T06:35:34;100778.46;;;-0.64;78.64
76753;BME280;65687;51.308;16.916;2023-04-03T06:40:36;100781.54;;;-0.59;78.49
76753;BME280;65687;51.308;16.916;2023-04-03T06:45:38;100781.48;;;-0.46;78.61
76753;BME280;65687;51.308;16.916;2023-04-03T06:50:40;100784.73;;;-0.38;77.87
76753;BME280;65687;51.308;16.916;2023-04-03T06:55:42;100790.65;;;-0.30;77.47
76753;BME280;65687;51.308;16.916;2023-04-03T07:00:44;100796.19;;;-0.25;77.01
76753;BME280;65687;51.308;16.916;2023-04-03T07:05:45;100803.28;;;-0.16;77.38
76753;BME280;65687;51.308;16.916;2023-04-03T07:10:47;100809.52;;;-0.07;76.84
76753;BME280;65687;51.308;16.916;2023-04-03T07:15:49;100812.02;;;0.01;76.50
76753;BME280;65687;51.308;16.916;2023-04-03T07:20:51;100813.80;;;0.12;76.38
76753;BME280;65687;51.308;16.916;2023-04-03T07:25:53;100820.41;;;0.25;75.90
76753;BME280;65687;51.308;16.916;2023-04-03T07:31:04;100823.25;;;0.25;74.43
76753;BME280;65687;51.308;16.916;2023-04-03T07:36:08;100827.66;;;0.30;73.86
76753;BME280;65687;51.308;16.916;2023-04-03T07:41:18;100827.82;;;0.44;72.90
76753;BME280;65687;51.308;16.916;2023-04-03T07:46:20;100824.20;;;0.54;72.59
76753;BME280;65687;51.308;16.916;2023-04-03T07:51:22;100825.70;;;0.77;71.24
76753;BME280;65687;51.308;16.916;2023-04-03T07:56:25;100819.02;;;1.08;71.43
76753;BME280;65687;51.308;16.916;2023-04-03T08:01:27;100821.59;;;1.40;69.42
76753;BME280;65687;51.308;16.916;2023-04-03T08:06:30;100823.63;;;1.65;68.09
76753;BME280;65687;51.308;16.916;2023-04-03T08:11:34;100824.90;;;1.70;67.05
76753;BME280;65687;51.308;16.916;2023-04-03T08:16:37;100828.38;;;1.61;66.80
76753;BME280;65687;51.308;16.916;2023-04-03T08:21:42;100824.05;;;1.65;66.95
76753;BME280;65687;51.308;16.916;2023-04-03T08:26:44;100824.30;;;2.11;66.35
76753;BME280;65687;51.308;16.916;2023-04-03T08:31:50;100821.73;;;2.26;64.50
76753;BME280;65687;51.308;16.916;2023-04-03T08:37:02;100823.41;;;2.48;63.35
76753;BME280;65687;51.308;16.916;2023-04-03T08:42:24;100822.35;;;2.84;63.40
76753;BME280;65687;51.308;16.916;2023-04-03T08:47:38;100828.02;;;2.98;62.79
76753;BME280;65687;51.308;16.916;2023-04-03T08:52:49;100831.94;;;3.01;61.45
76753;BME280;65687;51.308;16.916;2023-04-03T08:58:10;100829.11;;;3.04;61.41
76753;BME280;65687;51.308;16.916;2023-04-03T09:03:18;100827.79;;;3.29;60.69
76753;BME280;65687;51.308;16.916;2023-04-03T09:08:37;100828.29;;;3.12;59.17
76753;BME280;65687;51.308;16.916;2023-04-03T09:19:15;100822.41;;;2.85;58.85
76753;BME280;65687;51.308;16.916;2023-04-03T09:24:20;100824.86;;;3.34;57.71
76753;BME280;65687;51.308;16.916;2023-04-03T09:29:24;100823.55;;;3.68;56.15
76753;BME280;65687;51.308;16.916;2023-04-03T09:34:30;100816.27;;;3.94;54.98
76753;BME280;65687;51.308;16.916;2023-04-03T09:39:52;100817.35;;;4.02;54.83
76753;BME280;65687;51.308;16.916;2023-04-03T09:45:04;100820.87;;;3.71;54.63
76753;BME280;65687;51.308;16.916;2023-04-03T09:55:26;100828.95;;;3.50;54.22
76753;BME280;65687;51.308;16.916;2023-04-03T10:00:40;100821.89;;;3.93;52.64
76753;BME280;65687;51.308;16.916;2023-04-03T10:05:42;100822.68;;;4.21;50.69
76753;BME280;65687;51.308;16.916;2023-04-03T10:10:45;100815.14;;;4.50;51.99
76753;BME280;65687;51.308;16.916;2023-04-03T10:16:03;100809.55;;;4.68;51.78
76753;BME280;65687;51.308;16.916;2023-04-03T10:21:19;100815.86;;;4.33;50.31
76753;BME280;65687;51.308;16.916;2023-04-03T10:32:02;100815.14;;;4.48;50.96
76753;BME280;65687;51.308;16.916;2023-04-03T10:54:36;100807.47;;;4.45;49.52
76753;BME280;65687;51.308;16.916;2023-04-03T11:04:39;100800.11;;;4.74;48.61
76753;BME280;65687;51.308;16.916;2023-04-03T11:09:44;100802.30;;;4.34;48.93
76753;BME280;65687;51.308;16.916;2023-04-03T11:14:48;100798.98;;;4.34;48.65
76753;BME280;65687;51.308;16.916;2023-04-03T11:20:17;100790.41;;;4.71;49.26
76753;BME280;65687;51.308;16.916;2023-04-03T11:25:25;100791.19;;;4.74;48.30
76753;BME280;65687;51.308;16.916;2023-04-03T11:35:35;100790.15;;;4.49;47.78
76753;BME280;65687;51.308;16.916;2023-04-03T11:40:37;100779.02;;;4.61;47.86
76753;BME280;65687;51.308;16.916;2023-04-03T11:45:53;100779.34;;;5.08;49.54
76753;BME280;65687;51.308;16.916;2023-04-03T12:01:57;100778.79;;;5.08;45.66
76753;BME280;65687;51.308;16.916;2023-04-03T12:07:13;100776.70;;;4.71;46.36
76753;BME280;65687;51.308;16.916;2023-04-03T12:12:43;100773.39;;;4.47;47.23
76753;BME280;65687;51.308;16.916;2023-04-03T12:17:58;100781.73;;;4.33;47.63
76753;BME280;65687;51.308;16.916;2023-04-03T12:23:30;100779.86;;;4.43;47.29
76753;BME280;65687;51.308;16.916;2023-04-03T12:28:37;100772.36;;;4.56;46.80
76753;BME280;65687;51.308;16.916;2023-04-03T12:34:00;100765.77;;;4.79;49.10
76753;BME280;65687;51.308;16.916;2023-04-03T12:40:09;100775.61;;;4.78;47.12
76753;BME280;65687;51.308;16.916;2023-04-03T12:50:33;100765.46;;;4.37;46.72
76753;BME280;65687;51.308;16.916;2023-04-03T12:55:35;100764.67;;;4.55;48.60
76753;BME280;65687;51.308;16.916;2023-04-03T13:00:39;100767.55;;;4.46;46.54
76753;BME280;65687;51.308;16.916;2023-04-03T13:05:44;100760.79;;;4.44;47.90
76753;BME280;65687;51.308;16.916;2023-04-03T13:11:22;100765.46;;;4.59;47.00
76753;BME280;65687;51.308;16.916;2023-04-03T13:16:24;100766.73;;;4.52;46.24
76753;BME280;65687;51.308;16.916;2023-04-03T13:21:28;100755.32;;;4.47;45.51
76753;BME280;65687;51.308;16.916;2023-04-03T13:26:32;100755.48;;;4.58;45.52
76753;BME280;65687;51.308;16.916;2023-04-03T13:31:36;100757.34;;;4.58;46.84
76753;BME280;65687;51.308;16.916;2023-04-03T13:36:39;100756.93;;;4.45;45.88
76753;BME280;65687;51.308;16.916;2023-04-03T13:41:47;100750.16;;;4.47;47.03
76753;BME280;65687;51.308;16.916;2023-04-03T13:52:24;100758.04;;;4.22;46.41
76753;BME280;65687;51.308;16.916;2023-04-03T13:57:27;100754.70;;;4.22;46.53
76753;BME280;65687;51.308;16.916;2023-04-03T14:02:32;100751.89;;;4.48;47.32
76753;BME280;65687;51.308;16.916;2023-04-03T14:07:34;100754.70;;;4.52;46.85
76753;BME280;65687;51.308;16.916;2023-04-03T14:12:37;100746.64;;;4.65;46.26
76753;BME280;65687;51.308;16.916;2023-04-03T14:17:43;100749.05;;;4.74;47.06
76753;BME280;65687;51.308;16.916;2023-04-03T14:22:44;100750.06;;;4.64;46.79
76753;BME280;65687;51.308;16.916;2023-04-03T14:27:48;100758.17;;;4.46;46.84
76753;BME280;65687;51.308;16.916;2023-04-03T14:32:51;100748.67;;;4.25;46.24
76753;BME280;65687;51.308;16.916;2023-04-03T14:37:53;100750.44;;;4.11;45.78
76753;BME280;65687;51.308;16.916;2023-04-03T14:42:56;100745.11;;;4.10;45.75
76753;BME280;65687;51.308;16.916;2023-04-03T14:47:58;100745.20;;;4.11;46.37
76753;BME280;65687;51.308;16.916;2023-04-03T14:53:00;100746.39;;;4.03;46.70
76753;BME280;65687;51.308;16.916;2023-04-03T14:58:02;100751.16;;;3.96;47.12
76753;BME280;65687;51.308;16.916;2023-04-03T15:03:04;100748.46;;;3.91;46.60
76753;BME280;65687;51.308;16.916;2023-04-03T15:08:17;100751.41;;;3.84;47.45
76753;BME280;65687;51.308;16.916;2023-04-03T15:13:19;100747.13;;;3.77;48.00
76753;BME280;65687;51.308;16.916;2023-04-03T15:18:23;100745.46;;;3.75;48.02
76753;BME280;65687;51.308;16.916;2023-04-03T15:23:27;100744.20;;;3.79;48.80
76753;BME280;65687;51.308;16.916;2023-04-03T15:28:35;100742.07;;;3.80;48.95
76753;BME280;65687;51.308;16.916;2023-04-03T15:33:37;100750.80;;;3.77;49.57
76753;BME280;65687;51.308;16.916;2023-04-03T15:38:39;100753.38;;;3.72;49.44
76753;BME280;65687;51.308;16.916;2023-04-03T15:43:40;100756.18;;;3.62;49.87
76753;BME280;65687;51.308;16.916;2023-04-03T15:48:42;100761.70;;;3.55;49.74
76753;BME280;65687;51.308;16.916;2023-04-03T15:53:44;100763.69;;;3.52;50.02
76753;BME280;65687;51.308;16.916;2023-04-03T15:58:45;100764.71;;;3.49;49.78
76753;BME280;65687;51.308;16.916;2023-04-03T16:03:47;100767.98;;;3.44;50.52
76753;BME280;65687;51.308;16.916;2023-04-03T16:08:49;100771.30;;;3.38;50.54
76753;BME280;65687;51.308;16.916;2023-04-03T16:13:50;100773.45;;;3.30;50.71
76753;BME280;65687;51.308;16.916;2023-04-03T16:18:53;100774.89;;;3.23;50.74
76753;BME280;65687;51.308;16.916;2023-04-03T16:23:57;100776.17;;;3.15;51.00
76753;BME280;65687;51.308;16.916;2023-04-03T16:28:59;100775.27;;;3.09;51.09
76753;BME280;65687;51.308;16.916;2023-04-03T16:34:01;100782.57;;;3.06;51.01
76753;BME280;65687;51.308;16.916;2023-04-03T16:39:03;100784.55;;;3.03;51.61
76753;BME280;65687;51.308;16.916;2023-04-03T16:44:05;100787.02;;;3.03;51.99
76753;BME280;65687;51.308;16.916;2023-04-03T16:49:08;100788.46;;;3.02;51.47
76753;BME280;65687;51.308;16.916;2023-04-03T16:54:10;100790.21;;;2.98;51.76
76753;BME280;65687;51.308;16.916;2023-04-03T16:59:15;100792.75;;;2.94;51.22
76753;BME280;65687;51.308;16.916;2023-04-03T17:04:17;100795.38;;;2.91;51.95
76753;BME280;65687;51.308;16.916;2023-04-03T17:09:19;100793.90;;;2.88;52.35
76753;BME280;65687;51.308;16.916;2023-04-03T17:14:22;100792.30;;;2.82;51.51
76753;BME280;65687;51.308;16.916;2023-04-03T17:19:23;100790.17;;;2.79;52.14
76753;BME280;65687;51.308;16.916;2023-04-03T17:24:25;100792.30;;;2.78;53.36
76753;BME280;65687;51.308;16.916;2023-04-03T17:29:28;100789.92;;;2.75;52.22
76753;BME280;65687;51.308;16.916;2023-04-03T17:34:29;100793.10;;;2.68;52.41
76753;BME280;65687;51.308;16.916;2023-04-03T17:39:31;100796.34;;;2.64;52.38
76753;BME280;65687;51.308;16.916;2023-04-03T17:44:33;100802.99;;;2.63;52.98
76753;BME280;65687;51.308;16.916;2023-04-03T17:49:35;100806.01;;;2.63;53.54
76753;BME280;65687;51.308;16.916;2023-04-03T17:54:37;100806.33;;;2.63;53.62
76753;BME280;65687;51.308;16.916;2023-04-03T17:59:38;100804.31;;;2.63;53.32
76753;BME280;65687;51.308;16.916;2023-04-03T18:04:41;100802.55;;;2.60;53.16
76753;BME280;65687;51.308;16.916;2023-04-03T18:09:44;100803.88;;;2.59;53.59
76753;BME280;65687;51.308;16.916;2023-04-03T18:14:47;100802.30;;;2.55;53.64
76753;BME280;65687;51.308;16.916;2023-04-03T18:19:49;100804.09;;;2.55;54.13
76753;BME280;65687;51.308;16.916;2023-04-03T18:24:52;100803.24;;;2.53;54.40
76753;BME280;65687;51.308;16.916;2023-04-03T18:30:05;100799.58;;;2.49;54.90
76753;BME280;65687;51.308;16.916;2023-04-03T18:35:08;100802.27;;;2.42;54.49
76753;BME280;65687;51.308;16.916;2023-04-03T18:40:10;100806.48;;;2.38;54.93
76753;BME280;65687;51.308;16.916;2023-04-03T18:45:16;100808.90;;;2.36;54.73
76753;BME280;65687;51.308;16.916;2023-04-03T18:50:20;100812.63;;;2.33;55.38
76753;BME280;65687;51.308;16.916;2023-04-03T18:55:21;100812.15;;;2.30;55.29
76753;BME280;65687;51.308;16.916;2023-04-03T19:00:23;100806.43;;;2.27;55.43
76753;BME280;65687;51.308;16.916;2023-04-03T19:05:26;100804.00;;;2.23;55.73
76753;BME280;65687;51.308;16.916;2023-04-03T19:10:29;100802.44;;;2.20;55.46
76753;BME280;65687;51.308;16.916;2023-04-03T19:15:30;100801.59;;;2.17;55.78
76753;BME280;65687;51.308;16.916;2023-04-03T19:20:32;100802.13;;;2.15;56.03
76753;BME280;65687;51.308;16.916;2023-04-03T19:25:34;100806.57;;;2.11;56.12
76753;BME280;65687;51.308;16.916;2023-04-03T19:30:37;100808.70;;;2.09;56.52
76753;BME280;65687;51.308;16.916;2023-04-03T19:35:39;100807.29;;;2.08;56.41
76753;BME280;65687;51.308;16.916;2023-04-03T19:40:42;100809.00;;;2.07;56.71
76753;BME280;65687;51.308;16.916;2023-04-03T19:45:44;100804.67;;;2.06;56.39
76753;BME280;65687;51.308;16.916;2023-04-03T19:50:46;100812.85;;;2.06;56.58
76753;BME280;65687;51.308;16.916;2023-04-03T19:55:48;100817.74;;;2.05;56.34
76753;BME280;65687;51.308;16.916;2023-04-03T20:00:50;100819.35;;;2.03;56.61
76753;BME280;65687;51.308;16.916;2023-04-03T20:05:53;100816.05;;;2.00;56.16
76753;BME280;65687;51.308;16.916;2023-04-03T20:10:55;100816.20;;;2.00;56.95
76753;BME280;65687;51.308;16.916;2023-04-03T20:16:04;100822.70;;;1.99;56.81
76753;BME280;65687;51.308;16.916;2023-04-03T20:21:07;100823.71;;;1.94;56.70
76753;BME280;65687;51.308;16.916;2023-04-03T20:26:09;100825.51;;;1.87;57.33
76753;BME280;65687;51.308;16.916;2023-04-03T20:31:20;100833.80;;;1.78;57.25
76753;BME280;65687;51.308;16.916;2023-04-03T20:36:22;100832.80;;;1.68;57.72
76753;BME280;65687;51.308;16.916;2023-04-03T20:41:24;100831.31;;;1.58;57.21
76753;BME280;65687;51.308;16.916;2023-04-03T20:46:26;100829.89;;;1.47;57.91
76753;BME280;65687;51.308;16.916;2023-04-03T20:51:29;100826.77;;;1.41;57.98
76753;BME280;65687;51.308;16.916;2023-04-03T20:56:31;100824.52;;;1.35;58.01
76753;BME280;65687;51.308;16.916;2023-04-03T21:01:36;100825.07;;;1.27;58.40
76753;BME280;65687;51.308;16.916;2023-04-03T21:23:08;100822.27;;;1.00;59.26
76753;BME280;65687;51.308;16.916;2023-04-03T21:28:10;100818.30;;;0.96;59.53
76753;BME280;65687;51.308;16.916;2023-04-03T21:33:11;100823.71;;;0.90;59.78
76753;BME280;65687;51.308;16.916;2023-04-03T21:38:13;100825.34;;;0.83;59.59
76753;BME280;65687;51.308;16.916;2023-04-03T21:43:15;100827.55;;;0.76;59.55
76753;BME280;65687;51.308;16.916;2023-04-03T21:48:17;100825.29;;;0.70;59.64
76753;BME280;65687;51.308;16.916;2023-04-03T21:53:20;100825.84;;;0.62;59.53
76753;BME280;65687;51.308;16.916;2023-04-03T21:58:27;100834.78;;;0.53;59.67
76753;BME280;65687;51.308;16.916;2023-04-03T22:03:30;100836.96;;;0.44;59.57
76753;BME280;65687;51.308;16.916;2023-04-03T22:08:35;100838.76;;;0.38;60.20
76753;BME280;65687;51.308;16.916;2023-04-03T22:13:37;100841.55;;;0.32;60.18
76753;BME280;65687;51.308;16.916;2023-04-03T22:18:38;100840.27;;;0.30;60.61
76753;BME280;65687;51.308;16.916;2023-04-03T22:23:40;100837.98;;;0.29;61.09
76753;BME280;65687;51.308;16.916;2023-04-03T22:28:44;100840.13;;;0.23;61.31
76753;BME280;65687;51.308;16.916;2023-04-03T22:33:46;100842.05;;;0.17;61.25
76753;BME280;65687;51.308;16.916;2023-04-03T22:38:47;100843.26;;;0.13;61.70
76753;BME280;65687;51.308;16.916;2023-04-03T22:43:49;100850.02;;;0.09;62.01
76753;BME280;65687;51.308;16.916;2023-04-03T22:48:50;100849.14;;;0.03;62.27
76753;BME280;65687;51.308;16.916;2023-04-03T22:53:52;100848.19;;;-0.03;63.39
76753;BME280;65687;51.308;16.916;2023-04-03T22:58:54;100847.08;;;-0.04;63.43
76753;BME280;65687;51.308;16.916;2023-04-03T23:03:56;100844.81;;;-0.08;64.26
76753;BME280;65687;51.308;16.916;2023-04-03T23:08:58;100841.99;;;-0.11;64.19
76753;BME280;65687;51.308;16.916;2023-04-03T23:13:59;100842.11;;;-0.12;63.71
76753;BME280;65687;51.308;16.916;2023-04-03T23:19:03;100841.44;;;-0.12;63.49
76753;BME280;65687;51.308;16.916;2023-04-03T23:24:04;100842.27;;;-0.12;63.46
76753;BME280;65687;51.308;16.916;2023-04-03T23:29:06;100837.81;;;-0.12;63.28
76753;BME280;65687;51.308;16.916;2023-04-03T23:34:08;100831.17;;;-0.13;63.88
76753;BME280;65687;51.308;16.916;2023-04-03T23:39:09;100827.16;;;-0.08;64.11
76753;BME280;65687;51.308;16.916;2023-04-03T23:44:11;100827.84;;;-0.07;64.11
76753;BME280;65687;51.308;16.916;2023-04-03T23:49:12;100827.73;;;-0.06;64.29
76753;BME280;65687;51.308;16.916;2023-04-03T23:54:13;100832.23;;;-0.03;64.39
76753;BME280;65687;51.308;16.916;2023-04-03T23:59:15;100829.11;;;-0.10;64.15
